createdAt,value
2023-10-23T00:00:50.678Z,90.40
2023-10-23T00:03:17.769Z,90.50
2023-10-23T00:05:44.797Z,90.60
2023-10-23T00:08:11.659Z,90.80
2023-10-23T00:10:38.415Z,90.50
2023-10-23T00:13:05.343Z,90.70
2023-10-23T00:15:33.032Z,91.00
2023-10-23T00:17:59.867Z,90.80
2023-10-23T00:20:26.754Z,90.70
2023-10-23T00:22:53.525Z,90.60
2023-10-23T00:25:20.345Z,90.50
2023-10-23T00:27:47.163Z,90.40
2023-10-23T00:30:14.247Z,90.60
2023-10-23T00:32:41.234Z,91.00
2023-10-23T00:35:08.541Z,90.50
2023-10-23T00:37:36.248Z,90.60
2023-10-23T00:40:03.331Z,90.50
2023-10-23T00:42:32.535Z,90.30
2023-10-23T00:44:59.347Z,90.70
2023-10-23T00:47:27.491Z,90.60
2023-10-23T00:49:56.884Z,90.70
2023-10-23T00:52:25.007Z,90.90
2023-10-23T00:54:52.876Z,91.30
2023-10-23T00:57:20.397Z,91.40
2023-10-23T00:59:47.406Z,91.20
2023-10-23T01:02:15.530Z,90.80
2023-10-23T01:04:42.876Z,91.10
2023-10-23T01:07:09.663Z,91.50
2023-10-23T01:09:36.457Z,91.20
2023-10-23T01:12:03.403Z,91.30
2023-10-23T01:14:30.455Z,91.40
2023-10-23T01:16:57.369Z,91.40
2023-10-23T01:19:24.137Z,91.30
2023-10-23T01:21:50.920Z,91.10
2023-10-23T01:24:19.930Z,91.30
2023-10-23T01:26:46.861Z,91.20
2023-10-23T01:29:13.660Z,91.40
2023-10-23T01:31:40.486Z,91.70
2023-10-23T01:34:07.310Z,91.70
2023-10-23T01:36:34.121Z,90.90
2023-10-23T01:39:00.964Z,90.80
2023-10-23T01:41:27.725Z,90.80
2023-10-23T01:43:54.585Z,91.30
2023-10-23T01:46:21.432Z,91.30
2023-10-23T01:48:48.871Z,91.50
2023-10-23T01:51:15.686Z,91.40
2023-10-23T01:53:42.424Z,91.30
2023-10-23T01:56:12.060Z,91.20
2023-10-23T01:58:38.834Z,91.00
2023-10-23T02:01:05.792Z,91.10
2023-10-23T02:03:33.021Z,91.30
2023-10-23T02:06:00.191Z,91.50
2023-10-23T02:08:26.965Z,91.10
2023-10-23T02:10:53.724Z,90.60
2023-10-23T02:13:20.731Z,90.70
2023-10-23T02:15:47.699Z,90.90
2023-10-23T02:18:14.581Z,90.80
2023-10-23T02:20:41.379Z,90.70
2023-10-23T02:23:08.167Z,90.80
2023-10-23T02:25:34.916Z,90.80
2023-10-23T02:28:01.693Z,90.90
2023-10-23T02:30:28.683Z,90.40
2023-10-23T02:32:55.953Z,89.90
2023-10-23T02:35:22.778Z,90.20
2023-10-23T02:37:50.808Z,90.40
2023-10-23T02:40:17.722Z,90.40
2023-10-23T02:42:44.627Z,90.40
2023-10-23T02:45:11.574Z,90.90
2023-10-23T02:47:39.136Z,91.50
2023-10-23T02:50:07.020Z,91.80
2023-10-23T02:52:33.870Z,91.80
2023-10-23T02:55:00.661Z,91.80
2023-10-23T02:57:27.490Z,91.10
2023-10-23T02:59:56.594Z,91.00
2023-10-23T03:02:23.983Z,91.20
2023-10-23T03:04:50.772Z,91.20
2023-10-23T03:07:17.553Z,91.30
2023-10-23T03:09:44.456Z,91.50
2023-10-23T03:12:11.512Z,91.40
2023-10-23T03:14:38.378Z,91.70
2023-10-23T03:17:05.261Z,91.70
2023-10-23T03:19:32.029Z,91.20
2023-10-23T03:21:58.869Z,91.20
2023-10-23T03:24:25.958Z,91.50
2023-10-23T03:26:52.760Z,91.60
2023-10-23T03:29:19.538Z,91.40
2023-10-23T03:31:46.410Z,91.20
2023-10-23T03:34:14.648Z,91.20
2023-10-23T03:36:43.198Z,91.00
2023-10-23T03:39:10.065Z,91.00
2023-10-23T03:41:36.874Z,91.20
2023-10-23T03:44:04.776Z,90.90
2023-10-23T03:46:32.086Z,91.50
2023-10-23T03:48:59.151Z,90.60
2023-10-23T03:51:26.046Z,90.80
2023-10-23T03:53:52.885Z,90.30
2023-10-23T03:56:19.746Z,90.40
2023-10-23T03:58:46.496Z,90.90
2023-10-23T04:01:13.864Z,90.80
2023-10-23T04:03:40.696Z,90.80
2023-10-23T04:06:07.735Z,90.80
2023-10-23T04:08:34.582Z,91.30
2023-10-23T04:11:01.438Z,90.60
2023-10-23T04:13:30.357Z,90.20
2023-10-23T04:16:02.023Z,90.70
2023-10-23T04:18:29.302Z,90.70
2023-10-23T04:21:04.018Z,91.10
2023-10-23T04:23:31.098Z,90.90
2023-10-23T04:25:57.942Z,91.10
2023-10-23T04:28:25.216Z,91.00
2023-10-23T04:30:52.309Z,91.10
2023-10-23T04:33:26.174Z,91.40
2023-10-23T04:35:53.581Z,91.80
2023-10-23T04:38:21.162Z,91.70
2023-10-23T04:40:48.661Z,91.60
2023-10-23T04:43:15.688Z,91.60
2023-10-23T04:45:42.513Z,91.60
2023-10-23T04:48:09.979Z,91.60
2023-10-23T04:50:41.306Z,91.70
2023-10-23T04:53:08.805Z,91.80
2023-10-23T04:55:37.152Z,92.50
2023-10-23T04:58:04.062Z,92.60
2023-10-23T05:00:31.061Z,92.80
2023-10-23T05:02:57.880Z,92.60
2023-10-23T05:05:24.726Z,92.50
2023-10-23T05:07:51.685Z,92.30
2023-10-23T05:10:18.579Z,92.10
2023-10-23T05:12:47.138Z,92.30
2023-10-23T05:15:13.947Z,92.50
2023-10-23T05:17:40.829Z,92.20
2023-10-23T05:20:08.278Z,92.80
2023-10-23T05:22:35.285Z,93.20
2023-10-23T05:25:02.352Z,93.50
2023-10-23T05:27:29.595Z,92.80
2023-10-23T05:29:56.695Z,92.90
2023-10-23T05:32:23.539Z,92.50
2023-10-23T05:34:50.449Z,92.80
2023-10-23T05:37:17.269Z,93.00
2023-10-23T05:39:44.084Z,93.20
2023-10-23T05:42:10.918Z,93.10
2023-10-23T05:44:37.712Z,93.10
2023-10-23T05:47:04.693Z,92.70
2023-10-23T05:49:31.455Z,93.10
2023-10-23T05:51:58.418Z,93.10
2023-10-23T05:54:26.406Z,93.30
2023-10-23T05:56:53.227Z,93.50
2023-10-23T05:59:20.086Z,93.20
2023-10-23T06:01:46.840Z,92.90
2023-10-23T06:04:13.780Z,93.00
2023-10-23T06:06:40.652Z,92.70
2023-10-23T06:09:09.135Z,93.00
2023-10-23T06:11:35.952Z,93.00
2023-10-23T06:14:04.288Z,93.10
2023-10-23T06:16:31.586Z,93.00
2023-10-23T06:19:00.873Z,93.30
2023-10-23T06:21:27.836Z,93.00
2023-10-23T06:23:54.720Z,93.30
2023-10-23T06:26:21.896Z,93.50
2023-10-23T06:28:48.918Z,93.30
2023-10-23T06:31:16.042Z,93.40
2023-10-23T06:33:44.703Z,93.50
2023-10-23T06:36:11.919Z,93.50
2023-10-23T06:38:39.076Z,93.20
2023-10-23T06:41:07.136Z,93.50
2023-10-23T06:43:35.260Z,92.80
2023-10-23T06:46:02.978Z,92.80
2023-10-23T06:48:34.131Z,92.80
2023-10-23T06:51:01.234Z,93.00
2023-10-23T06:53:28.687Z,93.20
2023-10-23T06:55:56.360Z,92.70
2023-10-23T06:58:23.862Z,92.30
2023-10-23T07:00:51.122Z,93.30
2023-10-23T07:03:18.107Z,92.90
2023-10-23T07:05:45.335Z,92.80
2023-10-23T07:08:13.073Z,93.00
2023-10-23T07:10:40.195Z,92.80
2023-10-23T07:13:15.507Z,92.90
2023-10-23T07:15:46.630Z,93.20
2023-10-23T07:18:13.918Z,92.70
2023-10-23T07:20:41.072Z,93.00
2023-10-23T07:23:08.292Z,92.50
2023-10-23T07:25:35.266Z,92.80
2023-10-23T07:28:02.038Z,92.00
2023-10-23T07:30:29.199Z,92.40
2023-10-23T07:32:56.001Z,92.70
2023-10-23T07:35:22.877Z,92.70
2023-10-23T07:37:49.825Z,92.40
2023-10-23T07:40:17.543Z,92.50
2023-10-23T07:42:44.331Z,92.00
2023-10-23T07:45:11.152Z,92.50
2023-10-23T07:47:37.974Z,92.30
2023-10-23T07:50:05.936Z,92.10
2023-10-23T07:52:33.509Z,92.20
2023-10-23T07:55:04.761Z,92.20
2023-10-23T07:57:31.823Z,92.30
2023-10-23T07:59:58.660Z,92.10
2023-10-23T08:02:26.284Z,92.50
2023-10-23T08:04:53.604Z,92.60
2023-10-23T08:07:20.571Z,92.00
2023-10-23T08:09:47.904Z,92.00
2023-10-23T08:12:14.825Z,91.90
2023-10-23T08:14:42.085Z,92.10
2023-10-23T08:17:08.994Z,92.30
2023-10-23T08:19:35.945Z,91.40
2023-10-23T08:22:02.933Z,91.60
2023-10-23T08:24:30.148Z,91.30
2023-10-23T08:26:57.175Z,91.30
2023-10-23T08:29:24.035Z,91.50
2023-10-23T08:31:50.944Z,91.20
2023-10-23T08:34:22.225Z,90.40
2023-10-23T08:36:49.882Z,89.70
2023-10-23T08:39:16.901Z,89.80
2023-10-23T08:41:43.926Z,88.70
2023-10-23T08:44:14.010Z,89.30
2023-10-23T08:46:41.724Z,90.30
2023-10-23T08:49:08.649Z,89.40
2023-10-23T08:51:36.512Z,89.40
2023-10-23T08:54:11.596Z,88.20
2023-10-23T08:56:42.124Z,87.70
2023-10-23T08:59:10.720Z,88.50
2023-10-23T09:01:38.922Z,89.20
2023-10-23T09:04:07.761Z,88.70
2023-10-23T09:06:36.930Z,88.40
2023-10-23T09:09:08.669Z,88.10
2023-10-23T09:11:45.152Z,88.00
2023-10-23T09:14:24.190Z,87.40
2023-10-23T09:16:52.906Z,86.50
2023-10-23T09:19:26.480Z,86.40
2023-10-23T09:21:53.927Z,86.50
2023-10-23T09:24:23.368Z,85.40
2023-10-23T09:26:51.654Z,85.60
2023-10-23T09:29:28.647Z,85.60
2023-10-23T09:31:58.641Z,84.60
2023-10-23T09:34:26.155Z,83.70
2023-10-23T09:36:54.293Z,83.10
2023-10-23T09:39:25.152Z,83.10
2023-10-23T09:41:53.309Z,82.20
2023-10-23T09:44:20.144Z,82.00
2023-10-23T09:46:49.121Z,81.20
2023-10-23T09:49:17.065Z,81.20
2023-10-23T09:51:46.088Z,81.00
2023-10-23T09:54:20.636Z,80.40
2023-10-23T09:56:52.910Z,81.10
2023-10-23T09:59:26.010Z,79.80
2023-10-23T10:02:01.877Z,79.80
2023-10-23T10:04:46.039Z,79.30
2023-10-23T10:07:19.966Z,78.30
2023-10-23T10:09:47.054Z,77.70
2023-10-23T10:12:14.627Z,77.80
2023-10-23T10:14:43.119Z,77.30
2023-10-23T10:17:11.583Z,78.30
2023-10-23T10:19:39.888Z,77.10
2023-10-23T10:22:15.962Z,76.90
2023-10-23T10:24:43.644Z,77.30
2023-10-23T10:27:11.658Z,76.10
2023-10-23T10:29:38.597Z,74.80
2023-10-23T10:32:10.940Z,75.10
2023-10-23T10:34:39.182Z,75.60
2023-10-23T10:37:15.468Z,74.00
2023-10-23T10:39:51.924Z,74.20
2023-10-23T10:42:39.565Z,73.60
2023-10-23T10:45:14.583Z,73.60
2023-10-23T10:48:00.538Z,71.60
2023-10-23T10:50:39.942Z,70.10
2023-10-23T10:53:09.043Z,68.80
2023-10-23T10:55:37.766Z,69.00
2023-10-23T10:58:05.682Z,69.20
2023-10-23T11:00:35.213Z,67.90
2023-10-23T11:03:04.188Z,67.20
2023-10-23T11:05:32.993Z,66.70
2023-10-23T11:08:00.907Z,67.80
2023-10-23T11:10:27.953Z,69.20
2023-10-23T11:12:54.810Z,69.50
2023-10-23T11:15:21.683Z,68.30
2023-10-23T11:17:48.687Z,68.10
2023-10-23T11:20:16.581Z,68.00
2023-10-23T11:22:45.500Z,68.40
2023-10-23T11:25:13.229Z,67.30
2023-10-23T11:27:40.961Z,67.10
2023-10-23T11:30:09.074Z,68.50
2023-10-23T11:32:36.298Z,69.10
2023-10-23T11:35:06.279Z,67.50
2023-10-23T11:37:36.150Z,67.00
2023-10-23T11:40:09.816Z,68.30
2023-10-23T11:43:03.932Z,67.20
2023-10-23T11:45:30.867Z,66.30
2023-10-23T11:47:57.858Z,66.90
2023-10-23T11:50:27.049Z,68.00
2023-10-23T11:52:53.833Z,67.50
2023-10-23T11:55:20.800Z,66.90
2023-10-23T11:57:51.449Z,66.20
2023-10-23T12:00:20.296Z,66.50
2023-10-23T12:02:48.457Z,65.60
2023-10-23T12:05:17.910Z,66.30
2023-10-23T12:07:48.870Z,65.20
2023-10-23T12:10:18.177Z,65.50
2023-10-23T12:12:46.192Z,65.30
2023-10-23T12:15:14.724Z,65.00
2023-10-23T12:17:43.165Z,64.80
2023-10-23T12:20:13.717Z,65.20
2023-10-23T12:22:46.424Z,65.30
2023-10-23T12:25:14.828Z,65.40
2023-10-23T12:27:42.135Z,64.30
2023-10-23T12:30:14.993Z,65.50
2023-10-23T12:33:16.947Z,64.20
2023-10-23T12:35:36.586Z,65.40
2023-10-23T12:38:04.286Z,66.20
2023-10-23T12:40:34.113Z,66.50
2023-10-23T12:43:02.253Z,66.90
2023-10-23T12:45:29.658Z,68.00
2023-10-23T12:47:56.808Z,68.10
2023-10-23T12:50:23.615Z,68.10
2023-10-23T12:52:50.784Z,68.20
2023-10-23T12:55:18.275Z,68.90
2023-10-23T12:57:45.305Z,67.70
2023-10-23T13:00:14.933Z,67.40
2023-10-23T13:02:43.714Z,68.20
2023-10-23T13:05:11.582Z,68.60
2023-10-23T13:07:38.911Z,68.50
2023-10-23T13:10:06.785Z,68.60
2023-10-23T13:12:35.608Z,69.70
2023-10-23T13:15:04.167Z,68.40
2023-10-23T13:17:32.614Z,68.50
2023-10-23T13:20:54.119Z,68.80
2023-10-23T13:22:51.205Z,69.30
2023-10-23T13:25:19.361Z,69.60
2023-10-23T13:27:48.094Z,69.60
2023-10-23T13:30:15.079Z,69.90
2023-10-23T13:32:42.390Z,70.00
2023-10-23T13:35:09.689Z,69.70
2023-10-23T13:37:37.218Z,69.70
2023-10-23T13:40:08.734Z,69.80
2023-10-23T13:42:36.174Z,70.70
2023-10-23T13:45:03.215Z,71.70
2023-10-23T13:47:32.413Z,70.90
2023-10-23T13:49:59.996Z,71.00
2023-10-23T13:52:28.170Z,71.60
2023-10-23T13:54:57.003Z,71.20
2023-10-23T13:57:23.929Z,71.50
2023-10-23T13:59:50.723Z,71.60
2023-10-23T14:02:17.578Z,71.80
2023-10-23T14:04:44.451Z,71.20
2023-10-23T14:07:13.602Z,71.90
2023-10-23T14:09:46.321Z,72.70
2023-10-23T14:12:16.191Z,72.40
2023-10-23T14:14:43.164Z,71.90
2023-10-23T14:17:10.284Z,72.60
2023-10-23T14:19:46.667Z,72.80
2023-10-23T14:22:18.716Z,72.30
2023-10-23T14:24:49.217Z,72.30
2023-10-23T14:27:18.026Z,72.30
2023-10-23T14:29:45.298Z,72.50
2023-10-23T14:32:12.233Z,72.80
2023-10-23T14:34:39.149Z,72.90
2023-10-23T14:37:06.134Z,72.90
2023-10-23T14:39:33.030Z,72.40
2023-10-23T14:41:59.765Z,72.80
2023-10-23T14:44:26.523Z,72.20
2023-10-23T14:46:53.474Z,71.10
2023-10-23T14:49:22.460Z,70.80
2023-10-23T14:51:51.743Z,71.10
2023-10-23T14:54:18.659Z,70.90
2023-10-23T14:56:46.009Z,71.80
2023-10-23T14:59:16.161Z,71.70
2023-10-23T15:01:43.219Z,71.70
2023-10-23T15:04:10.363Z,71.80
2023-10-23T15:06:37.207Z,71.50
2023-10-23T15:09:04.311Z,71.30
2023-10-23T15:11:31.169Z,71.30
2023-10-23T15:13:58.061Z,71.60
2023-10-23T15:16:25.033Z,72.10
2023-10-23T15:18:53.316Z,72.70
2023-10-23T15:21:20.446Z,74.10
2023-10-23T15:23:47.234Z,75.40
2023-10-23T15:26:14.017Z,76.80
2023-10-23T15:28:41.514Z,77.50
2023-10-23T15:31:09.379Z,78.00
2023-10-23T15:33:36.950Z,77.90
2023-10-23T15:36:05.427Z,78.20
2023-10-23T15:38:33.292Z,78.70
2023-10-23T15:41:09.021Z,79.20
2023-10-23T15:43:39.475Z,80.00
2023-10-23T15:46:12.720Z,80.70
2023-10-23T15:48:40.564Z,81.10
2023-10-23T15:51:07.457Z,81.20
2023-10-23T15:53:34.458Z,81.40
2023-10-23T15:56:01.864Z,81.80
2023-10-23T15:58:29.923Z,82.00
2023-10-23T16:00:58.172Z,82.50
2023-10-23T16:03:25.323Z,82.90
2023-10-23T16:05:52.512Z,83.40
2023-10-23T16:08:19.305Z,83.50
2023-10-23T16:10:53.149Z,83.80
2023-10-23T16:13:20.043Z,84.20
2023-10-23T16:15:48.083Z,84.40
2023-10-23T16:18:16.847Z,84.70
2023-10-23T16:20:44.605Z,84.80
2023-10-23T16:23:12.299Z,85.00
2023-10-23T16:25:42.763Z,85.20
2023-10-23T16:28:10.785Z,85.90
2023-10-23T16:30:39.567Z,86.20
2023-10-23T16:33:07.062Z,86.90
2023-10-23T16:35:37.614Z,87.00
2023-10-23T16:38:06.886Z,87.10
2023-10-23T16:40:35.094Z,87.20
2023-10-23T16:43:02.517Z,87.30
2023-10-23T16:45:32.025Z,87.40
2023-10-23T16:48:00.006Z,87.30
2023-10-23T16:50:28.571Z,87.30
2023-10-23T16:52:57.072Z,87.20
2023-10-23T16:55:26.058Z,87.10
2023-10-23T16:57:52.958Z,87.30
2023-10-23T17:00:20.083Z,87.40
2023-10-23T17:02:46.944Z,88.20
2023-10-23T17:05:14.093Z,88.20
2023-10-23T17:07:41.489Z,88.50
2023-10-23T17:10:08.834Z,88.60
2023-10-23T17:12:36.367Z,88.80
2023-10-23T17:15:04.040Z,89.20
2023-10-23T17:17:31.785Z,89.10
2023-10-23T17:19:59.058Z,89.50
2023-10-23T17:22:25.993Z,89.60
2023-10-23T17:24:52.943Z,89.80
2023-10-23T17:27:20.517Z,89.90
2023-10-23T17:29:47.726Z,90.00
2023-10-23T17:32:14.661Z,90.10
2023-10-23T17:34:41.609Z,90.30
2023-10-23T17:37:08.792Z,90.30
2023-10-23T17:39:35.697Z,90.30
2023-10-23T17:42:03.399Z,90.30
2023-10-23T17:44:30.688Z,90.20
2023-10-23T17:46:57.557Z,90.20
2023-10-23T17:49:24.550Z,90.30
2023-10-23T17:51:51.544Z,90.10
2023-10-23T17:54:19.642Z,90.10
2023-10-23T17:56:47.214Z,90.20
2023-10-23T17:59:14.481Z,90.00
2023-10-23T18:01:44.707Z,90.00
2023-10-23T18:04:12.492Z,90.00
2023-10-23T18:06:40.088Z,89.70
2023-10-23T18:09:07.818Z,89.90
2023-10-23T18:11:35.183Z,90.50
2023-10-23T18:14:02.235Z,90.10
2023-10-23T18:16:29.736Z,90.20
2023-10-23T18:18:57.236Z,90.30
2023-10-23T18:21:25.116Z,90.40
2023-10-23T18:23:53.269Z,90.50
2023-10-23T18:26:21.564Z,90.50
2023-10-23T18:28:48.598Z,90.40
2023-10-23T18:31:16.075Z,90.40
2023-10-23T18:33:43.540Z,90.30
2023-10-23T18:36:19.698Z,90.60
2023-10-23T18:38:47.556Z,90.70
2023-10-23T18:41:19.866Z,90.50
2023-10-23T18:43:46.932Z,90.30
2023-10-23T18:46:14.883Z,90.50
2023-10-23T18:48:42.699Z,90.70
2023-10-23T18:51:13.569Z,90.90
2023-10-23T18:53:42.230Z,91.00
2023-10-23T18:56:09.359Z,91.10
2023-10-23T18:58:36.788Z,91.20
2023-10-23T19:01:04.123Z,91.20
2023-10-23T19:03:31.572Z,91.10
2023-10-23T19:05:59.273Z,91.10
2023-10-23T19:08:31.692Z,91.20
2023-10-23T19:10:59.843Z,90.90
2023-10-23T19:13:27.263Z,91.00
2023-10-23T19:15:57.781Z,90.90
2023-10-23T19:18:27.431Z,91.10
2023-10-23T19:21:04.108Z,91.00
2023-10-23T19:23:32.511Z,91.20
2023-10-23T19:25:59.554Z,91.40
2023-10-23T19:28:27.004Z,91.30
2023-10-23T19:30:55.385Z,91.40
2023-10-23T19:33:22.987Z,91.40
2023-10-23T19:35:50.062Z,91.10
2023-10-23T19:38:17.463Z,91.10
2023-10-23T19:40:48.872Z,91.40
2023-10-23T19:43:17.650Z,91.60
2023-10-23T19:45:45.033Z,91.80
2023-10-23T19:48:13.456Z,91.80
2023-10-23T19:50:46.558Z,92.00
2023-10-23T19:53:18.094Z,92.00
2023-10-23T19:55:47.284Z,91.80
2023-10-23T19:58:17.361Z,91.90
2023-10-23T20:00:44.425Z,91.50
2023-10-23T20:03:11.755Z,91.80
2023-10-23T20:05:38.676Z,91.90
2023-10-23T20:08:06.027Z,92.10
2023-10-23T20:10:33.837Z,92.00
2023-10-23T20:13:03.461Z,91.80
2023-10-23T20:15:32.631Z,91.70
2023-10-23T20:17:59.587Z,91.80
2023-10-23T20:20:27.098Z,92.00
2023-10-23T20:22:54.303Z,92.20
2023-10-23T20:25:21.323Z,92.30
2023-10-23T20:27:49.369Z,92.20
2023-10-23T20:30:18.090Z,92.40
2023-10-23T20:32:45.870Z,92.40
2023-10-23T20:35:13.024Z,92.50
2023-10-23T20:37:40.515Z,92.60
2023-10-23T20:40:08.744Z,92.50
2023-10-23T20:42:37.287Z,92.60
2023-10-23T20:45:06.387Z,92.50
2023-10-23T20:47:34.786Z,92.30
2023-10-23T20:50:02.365Z,92.40
2023-10-23T20:52:33.354Z,92.60
2023-10-23T20:55:01.410Z,92.30
2023-10-23T20:57:31.468Z,92.40
2023-10-23T20:59:59.701Z,92.60
2023-10-23T21:02:26.701Z,92.80
2023-10-23T21:04:55.020Z,92.50
2023-10-23T21:07:24.297Z,92.40
2023-10-23T21:09:53.863Z,92.30
2023-10-23T21:12:21.413Z,92.20
2023-10-23T21:14:48.628Z,92.40
2023-10-23T21:17:19.706Z,92.00
2023-10-23T21:19:47.902Z,92.30
2023-10-23T21:22:15.884Z,92.30
2023-10-23T21:24:43.935Z,92.30
2023-10-23T21:27:11.344Z,92.60
2023-10-23T21:29:38.341Z,92.70
2023-10-23T21:32:06.000Z,92.80
2023-10-23T21:34:33.009Z,93.00
2023-10-23T21:36:59.824Z,93.20
2023-10-23T21:39:29.273Z,93.30
2023-10-23T21:41:57.610Z,93.30
2023-10-23T21:44:25.005Z,92.90
2023-10-23T21:46:52.063Z,92.60
2023-10-23T21:49:20.096Z,92.60
2023-10-23T21:51:48.177Z,92.60
2023-10-23T21:54:15.222Z,92.80
2023-10-23T21:57:20.697Z,92.80
2023-10-23T21:59:30.547Z,93.00
2023-10-23T22:01:58.687Z,92.90
2023-10-23T22:04:26.218Z,92.90
2023-10-23T22:06:56.011Z,92.80
2023-10-23T22:09:23.649Z,93.00
2023-10-23T22:11:51.146Z,93.00
2023-10-23T22:14:23.336Z,93.00
2023-10-23T22:16:52.303Z,92.90
2023-10-23T22:19:19.286Z,92.90
2023-10-23T22:21:49.408Z,93.00
2023-10-23T22:24:16.185Z,93.10
2023-10-23T22:26:45.368Z,93.00
2023-10-23T22:29:12.592Z,92.80
2023-10-23T22:31:39.800Z,92.80
2023-10-23T22:34:06.674Z,92.90
2023-10-23T22:36:33.573Z,93.10
2023-10-23T22:39:00.489Z,93.10
2023-10-23T22:41:27.254Z,93.20
2023-10-23T22:43:54.442Z,92.90
2023-10-23T22:46:21.258Z,92.70
2023-10-23T22:48:48.066Z,92.70
2023-10-23T22:51:15.133Z,92.80
2023-10-23T22:53:42.174Z,92.90
2023-10-23T22:56:11.686Z,92.90
2023-10-23T22:58:40.848Z,92.90
2023-10-23T23:01:09.334Z,93.10
2023-10-23T23:03:36.450Z,93.30
2023-10-23T23:06:07.234Z,93.30
2023-10-23T23:08:40.196Z,93.30
2023-10-23T23:11:08.470Z,93.50
2023-10-23T23:13:35.824Z,93.50
2023-10-23T23:16:05.569Z,93.40
2023-10-23T23:18:33.850Z,93.50
2023-10-23T23:21:02.637Z,93.70
2023-10-23T23:23:29.575Z,93.50
2023-10-23T23:25:56.743Z,93.50
2023-10-23T23:28:23.573Z,93.40
2023-10-23T23:30:50.452Z,93.40
2023-10-23T23:33:18.341Z,93.20
2023-10-23T23:35:45.170Z,93.40
2023-10-23T23:38:12.346Z,93.60
2023-10-23T23:40:39.946Z,93.50
2023-10-23T23:43:07.900Z,93.50
2023-10-23T23:45:34.767Z,93.70
2023-10-23T23:48:01.675Z,93.70
2023-10-23T23:50:29.034Z,93.80
2023-10-23T23:52:56.130Z,93.70
2023-10-23T23:55:26.020Z,93.60
2023-10-23T23:57:52.923Z,93.40
